Time;durP1;ratioP1;P1;durP2;ratioP2;P2;SDS_P1;SDS_P2;PMS_P1;PMS_P2;Temp;Humidity;BMP_temperature;BMP_pressure;BME280_temperature;BME280_humidity;BME280_pressure;Samples;Min_cycle;Max_cycle;Signal;HPM_P1;HPM_P2
2021/08/06 00:00:41;;;;;;;2.90;1.42;;;;;;;11.00;86.22;90154.03;4999044;28;20124;-86
2021/08/06 00:03:18;;;;;;;4.85;2.10;;;;;;;10.92;85.56;90141.25;5016474;28;20018;-87
2021/08/06 00:05:59;;;;;;;2.75;1.77;;;;;;;11.18;83.92;90156.16;4998439;28;21406;-88
2021/08/06 00:08:35;;;;;;;2.50;1.80;;;;;;;11.35;83.15;90153.06;4983934;28;20034;-85
2021/08/06 00:11:11;;;;;;;4.38;1.58;;;;;;;11.36;82.91;90153.81;5015433;28;20029;-85
2021/08/06 00:13:50;;;;;;;6.60;1.83;;;;;;;11.57;82.49;90148.16;5020955;28;20508;-85
2021/08/06 00:16:27;;;;;;;5.80;2.10;;;;;;;11.77;80.67;90136.50;4982480;28;20517;-87
2021/08/06 00:19:13;;;;;;;3.00;1.70;;;;;;;11.84;80.57;90131.41;4998156;28;20100;-86
2021/08/06 00:21:53;;;;;;;4.97;1.75;;;;;;;11.98;79.47;90140.50;5016494;28;20233;-87
2021/08/06 00:24:29;;;;;;;3.10;1.80;;;;;;;12.04;79.65;90131.25;4999222;28;20457;-86
2021/08/06 00:27:06;;;;;;;5.55;1.95;;;;;;;11.85;81.33;90132.91;4997870;28;20052;-86
2021/08/06 00:29:32;;;;;;;2.72;1.65;;;;;;;11.87;80.74;90135.94;5014753;28;20076;-86
2021/08/06 00:32:10;;;;;;;3.80;2.13;;;;;;;11.95;80.48;90140.13;4981821;28;20033;-86
2021/08/06 00:34:52;;;;;;;3.80;1.75;;;;;;;11.98;79.88;90130.06;4998454;28;20053;-86
2021/08/06 00:37:30;;;;;;;3.90;1.65;;;;;;;11.96;80.10;90125.22;5014767;28;20026;-87
2021/08/06 00:40:04;;;;;;;2.40;1.70;;;;;;;12.00;79.82;90110.34;5015640;28;20049;-86
2021/08/06 00:42:43;;;;;;;2.87;1.67;;;;;;;12.13;79.25;90131.75;4983016;28;20026;-86
2021/08/06 00:45:21;;;;;;;2.35;1.55;;;;;;;12.14;79.13;90133.25;4998326;28;20272;-87
2021/08/06 00:48:00;;;;;;;4.47;2.10;;;;;;;12.09;79.23;90120.53;4998791;28;20045;-86
2021/08/06 00:50:38;;;;;;;3.72;1.80;;;;;;;11.97;81.04;90126.72;4988052;28;20026;-87
2021/08/06 00:53:21;;;;;;;4.18;1.70;;;;;;;12.00;81.76;90127.88;4987064;28;20038;-86
2021/08/06 00:55:53;;;;;;;5.65;1.70;;;;;;;11.95;82.70;90128.94;5005822;28;20583;-85
2021/08/06 00:58:28;;;;;;;4.07;1.80;;;;;;;11.96;82.46;90122.59;4960178;28;20033;-85
2021/08/06 01:01:02;;;;;;;2.95;1.80;;;;;;;11.89;82.97;90115.44;4977053;28;20030;-86
2021/08/06 01:03:56;;;;;;;4.32;1.55;;;;;;;11.86;82.83;90112.78;4976847;28;20121;-86
2021/08/06 01:06:41;;;;;;;2.60;1.80;;;;;;;11.81;84.02;90116.44;4978148;28;20058;-86
2021/08/06 01:09:23;;;;;;;2.67;1.60;;;;;;;11.67;84.48;90118.84;4960249;28;20030;-86
2021/08/06 01:12:02;;;;;;;4.55;1.73;;;;;;;11.62;84.15;90119.91;4976436;28;20030;-85
2021/08/06 01:14:41;;;;;;;4.20;1.45;;;;;;;11.69;83.83;90122.59;4961159;28;20049;-85
2021/08/06 01:17:20;;;;;;;2.97;1.65;;;;;;;11.72;83.60;90129.72;4960938;28;20036;-85
2021/08/06 01:20:03;;;;;;;4.13;1.75;;;;;;;11.69;84.47;90121.84;4976764;28;20042;-87
2021/08/06 01:23:03;;;;;;;2.42;1.58;;;;;;;11.66;84.81;90123.31;4977076;28;20041;-85
2021/08/06 01:25:53;;;;;;;6.10;1.70;;;;;;;11.61;84.81;90113.19;4938383;28;20034;-85
2021/08/06 01:28:31;;;;;;;3.60;1.63;;;;;;;11.60;84.88;90114.28;4995061;28;20113;-85
2021/08/06 01:31:08;;;;;;;2.28;1.50;;;;;;;11.54;84.64;90099.28;4978958;28;20026;-84
2021/08/06 01:33:49;;;;;;;2.33;1.70;;;;;;;11.62;84.04;90099.00;5012586;28;20156;-85
2021/08/06 01:36:27;;;;;;;2.50;1.55;;;;;;;11.55;84.44;90103.41;4979698;28;20353;-85
2021/08/06 01:39:01;;;;;;;3.33;1.80;;;;;;;11.52;84.32;90099.66;4995991;28;20029;-85
2021/08/06 01:41:53;;;;;;;2.97;1.60;;;;;;;11.55;83.56;90103.41;4996161;28;20276;-85
2021/08/06 01:44:46;;;;;;;5.00;1.77;;;;;;;11.55;83.94;90090.34;4995824;28;20160;-85
2021/08/06 01:47:27;;;;;;;3.47;1.60;;;;;;;11.62;82.93;90090.44;4980264;28;20029;-85
2021/08/06 01:50:07;;;;;;;2.47;1.63;;;;;;;11.68;82.00;90089.03;5015302;28;20014;-86
2021/08/06 01:52:52;;;;;;;2.55;1.88;;;;;;;11.60;83.12;90085.59;4995865;28;20521;-87
2021/08/06 01:55:25;;;;;;;2.90;1.63;;;;;;;11.76;81.73;90087.25;4996866;28;20475;-86
2021/08/06 01:58:04;;;;;;;4.95;1.67;;;;;;;11.83;81.18;90074.28;4997577;28;20108;-86
2021/08/06 02:00:43;;;;;;;5.82;1.80;;;;;;;11.86;81.29;90076.97;4980432;28;20118;-86
2021/08/06 02:03:22;;;;;;;2.65;1.70;;;;;;;11.81;81.80;90079.88;4997655;28;20022;-86
2021/08/06 02:06:10;;;;;;;4.00;1.73;;;;;;;11.82;81.31;90078.75;4996807;28;20048;-86
2021/08/06 02:08:49;;;;;;;5.03;1.80;;;;;;;11.89;81.19;90076.28;5013859;28;20486;-86
2021/08/06 02:11:28;;;;;;;2.45;1.80;;;;;;;11.96;81.02;90076.34;4980936;28;20030;-87
2021/08/06 02:14:08;;;;;;;2.72;1.70;;;;;;;11.98;80.92;90073.41;4996433;28;20026;-88
2021/08/06 02:16:45;;;;;;;3.80;1.75;;;;;;;11.92;81.51;90065.13;4996777;28;20026;-88
2021/08/06 02:19:24;;;;;;;3.45;1.92;;;;;;;12.08;80.90;90066.78;4997696;28;20042;-86
2021/08/06 02:22:00;;;;;;;2.22;1.55;;;;;;;12.13;80.33;90063.84;5002290;28;20037;-85
2021/08/06 02:24:39;;;;;;;3.83;1.90;;;;;;;12.07;80.71;90065.28;5015155;28;20026;-85
2021/08/06 02:27:14;;;;;;;3.45;1.90;;;;;;;12.09;80.24;90066.44;4980466;28;20030;-84
2021/08/06 02:29:50;;;;;;;3.38;1.70;;;;;;;12.16;79.96;90086.66;4964262;28;20030;-84
2021/08/06 02:32:26;;;;;;;3.10;1.65;;;;;;;12.14;80.04;90070.56;4964808;28;20062;-85
2021/08/06 02:35:02;;;;;;;3.53;1.75;;;;;;;12.19;80.18;90073.63;4979151;28;20023;-85
2021/08/06 02:37:43;;;;;;;3.67;1.60;;;;;;;12.24;80.03;90063.97;4962748;28;20081;-86
2021/08/06 02:40:17;;;;;;;3.90;2.00;;;;;;;12.12;80.67;90065.72;4963762;28;20081;-85
2021/08/06 02:43:01;;;;;;;4.57;1.77;;;;;;;12.21;80.50;90068.03;4979788;28;20026;-86
2021/08/06 02:45:38;;;;;;;3.20;1.85;;;;;;;12.27;80.82;90065.88;4964654;28;20026;-87
2021/08/06 02:48:26;;;;;;;2.72;1.70;;;;;;;12.18;81.86;90074.72;4948835;28;20038;-87
2021/08/06 02:51:03;;;;;;;4.15;1.83;;;;;;;12.14;82.50;90076.53;4979552;28;20029;-85
2021/08/06 02:53:35;;;;;;;3.58;1.70;;;;;;;12.06;83.82;90067.13;4948623;28;20026;-85
2021/08/06 02:56:14;;;;;;;3.78;1.92;;;;;;;12.16;83.35;90057.91;4964926;28;20034;-85
2021/08/06 02:58:57;;;;;;;3.15;1.80;;;;;;;12.06;84.03;90061.16;4947893;28;20410;-85
2021/08/06 03:01:34;;;;;;;3.20;2.00;;;;;;;12.06;84.48;90058.56;4996903;28;20457;-85
2021/08/06 03:04:10;;;;;;;6.03;1.88;;;;;;;12.02;85.10;90057.78;4964928;28;20537;-87
2021/08/06 03:06:47;;;;;;;2.55;1.80;;;;;;;11.96;84.91;90049.50;4964373;28;20050;-85
2021/08/06 03:09:27;;;;;;;2.67;1.88;;;;;;;11.90;86.31;90051.66;4979773;28;20042;-85
2021/08/06 03:12:04;;;;;;;3.65;1.90;;;;;;;11.83;86.07;90050.81;4980857;28;20053;-86
2021/08/06 03:14:41;;;;;;;2.28;1.77;;;;;;;11.89;86.44;90059.84;4948409;28;20034;-87
2021/08/06 03:17:13;;;;;;;2.15;1.52;;;;;;;11.96;86.27;90062.53;4980823;28;20030;-86
2021/08/06 03:19:52;;;;;;;2.90;1.70;;;;;;;11.93;86.66;90061.38;4947845;28;20030;-86
2021/08/06 03:22:35;;;;;;;3.38;1.73;;;;;;;11.86;86.81;90058.69;4978781;28;20494;-85
2021/08/06 03:25:21;;;;;;;2.30;1.75;;;;;;;11.78;87.64;90062.31;4982446;28;20493;-85
2021/08/06 03:28:04;;;;;;;1.98;1.33;;;;;;;11.84;87.58;90060.19;5015796;28;20026;-85
2021/08/06 03:30:40;;;;;;;3.50;1.50;;;;;;;11.79;88.07;90069.03;4998796;28;20029;-85
2021/08/06 03:33:14;;;;;;;1.70;1.30;;;;;;;11.73;88.81;90075.66;4999501;28;20021;-86
2021/08/06 03:35:43;;;;;;;2.00;1.47;;;;;;;11.78;88.53;90085.81;4997546;28;20494;-86
2021/08/06 03:38:27;;;;;;;2.00;1.52;;;;;;;11.84;88.33;90083.69;4998859;28;20026;-86
2021/08/06 03:41:05;;;;;;;1.80;1.30;;;;;;;11.77;88.64;90092.13;4983175;28;20053;-86
2021/08/06 03:43:41;;;;;;;4.43;1.50;;;;;;;11.76;88.93;90087.25;4999253;28;20022;-86
2021/08/06 03:46:17;;;;;;;2.10;1.10;;;;;;;11.68;89.47;90075.97;4982969;28;20109;-85
2021/08/06 03:48:56;;;;;;;1.90;1.13;;;;;;;11.64;89.18;90085.63;4999265;28;20022;-86
2021/08/06 03:51:36;;;;;;;2.40;1.00;;;;;;;11.66;89.29;90080.78;4995497;28;20060;-85
2021/08/06 03:54:16;;;;;;;1.77;1.20;;;;;;;11.63;90.10;90084.13;4980761;28;20034;-85
2021/08/06 03:56:55;;;;;;;1.52;1.10;;;;;;;11.64;89.76;90083.78;4964846;28;20113;-86
2021/08/06 03:59:34;;;;;;;2.65;1.42;;;;;;;11.58;90.52;90082.56;4996847;28;20054;-86
2021/08/06 04:02:10;;;;;;;1.17;0.77;;;;;;;11.63;88.99;90074.44;4964117;28;20022;-86
2021/08/06 04:04:49;;;;;;;1.88;1.00;;;;;;;11.67;89.27;90084.94;4964840;28;20069;-86
2021/08/06 04:07:27;;;;;;;2.55;0.80;;;;;;;11.62;89.37;90080.00;5013236;23;20046;-88
2021/08/06 04:10:06;;;;;;;1.20;0.70;;;;;;;11.69;88.20;90075.63;4960923;28;20027;-89
2021/08/06 04:12:45;;;;;;;0.75;0.50;;;;;;;11.60;89.49;90079.63;4944972;28;20026;-88
2021/08/06 04:15:26;;;;;;;1.13;0.73;;;;;;;11.54;90.24;90060.16;4961757;28;20085;-89
2021/08/06 04:18:06;;;;;;;1.20;0.55;;;;;;;11.55;90.36;90067.63;4972893;28;20026;-88
2021/08/06 04:20:46;;;;;;;1.83;0.70;;;;;;;11.56;90.43;90068.38;4957600;28;20447;-88
2021/08/06 04:23:24;;;;;;;1.50;0.60;;;;;;;11.62;88.38;90059.13;4957954;28;20109;-89
2021/08/06 04:26:00;;;;;;;1.55;0.70;;;;;;;11.59;89.25;90072.88;4972956;28;20542;-88
2021/08/06 04:28:35;;;;;;;1.75;0.90;;;;;;;11.77;87.88;90088.78;4956841;28;20058;-87
2021/08/06 04:31:16;;;;;;;1.88;0.90;;;;;;;11.64;88.93;90081.16;4972519;28;20037;-88
2021/08/06 04:33:57;;;;;;;2.50;1.40;;;;;;;11.71;88.56;90083.09;4972731;28;20031;-88
2021/08/06 04:36:36;;;;;;;3.47;1.25;;;;;;;11.89;86.83;90072.91;4956591;28;20026;-88
2021/08/06 04:39:17;;;;;;;3.88;1.50;;;;;;;11.93;87.97;90084.88;4972608;28;20022;-88
2021/08/06 04:41:54;;;;;;;4.28;1.70;;;;;;;11.79;87.56;90071.66;4972807;28;20027;-88
2021/08/06 04:44:38;;;;;;;5.32;2.15;;;;;;;11.91;86.93;90079.28;4956664;28;20042;-87
2021/08/06 04:47:16;;;;;;;4.43;2.15;;;;;;;11.94;85.70;90080.41;4972555;28;20026;-88
2021/08/06 04:49:59;;;;;;;3.05;1.65;;;;;;;12.03;86.24;90086.13;4940212;28;20042;-89
2021/08/06 04:52:38;;;;;;;3.42;1.63;;;;;;;12.07;85.54;90086.16;4957661;28;20030;-88
2021/08/06 04:55:19;;;;;;;3.38;1.70;;;;;;;12.01;86.11;90079.75;4956801;28;20026;-87
2021/08/06 04:58:00;;;;;;;3.63;1.80;;;;;;;12.01;86.44;90082.34;4956062;28;20034;-88
2021/08/06 05:00:34;;;;;;;3.63;1.85;;;;;;;12.03;84.86;90091.34;4972150;28;20077;-88
2021/08/06 05:03:09;;;;;;;5.28;2.33;;;;;;;12.03;85.43;90093.22;4956647;28;20372;-88
2021/08/06 05:05:45;;;;;;;4.28;1.70;;;;;;;12.04;85.16;90082.41;4956408;28;20402;-88
2021/08/06 05:08:26;;;;;;;4.03;2.00;;;;;;;11.93;85.20;90091.97;4971724;28;20033;-88
2021/08/06 05:11:06;;;;;;;8.20;2.00;;;;;;;12.02;84.13;90073.44;4956674;28;20026;-88
2021/08/06 05:13:46;;;;;;;3.40;2.00;;;;;;;11.95;84.99;90085.31;4956006;28;20455;-88
2021/08/06 05:16:25;;;;;;;6.07;2.17;;;;;;;11.99;85.55;90074.16;4971795;28;20026;-87
2021/08/06 05:19:00;;;;;;;3.38;1.70;;;;;;;11.92;84.99;90104.28;4956726;28;20031;-88
2021/08/06 05:21:28;;;;;;;3.33;1.77;;;;;;;12.02;84.54;90094.31;4954486;28;20483;-88
2021/08/06 05:24:06;;;;;;;4.65;1.88;;;;;;;11.94;83.96;90091.63;4955700;28;20037;-87
2021/08/06 05:26:46;;;;;;;3.35;1.60;;;;;;;11.92;84.81;90100.91;4952967;28;20066;-88
2021/08/06 05:29:22;;;;;;;2.88;1.60;;;;;;;11.77;85.25;90104.44;4937300;29;20232;-88
2021/08/06 05:32:04;;;;;;;1.77;1.30;;;;;;;11.88;83.46;90106.09;4937093;29;20078;-88
2021/08/06 05:34:38;;;;;;;3.88;1.55;;;;;;;11.92;81.83;90114.72;4937762;29;20114;-87
2021/08/06 05:37:11;;;;;;;3.60;1.75;;;;;;;11.98;82.57;90114.41;4952538;28;20094;-88
2021/08/06 05:39:45;;;;;;;2.88;1.70;;;;;;;12.03;83.31;90101.03;4936801;29;20035;-88
2021/08/06 05:42:24;;;;;;;4.65;1.40;;;;;;;11.93;82.80;90113.59;4937073;29;20019;-88
2021/08/06 05:45:02;;;;;;;4.65;1.67;;;;;;;11.93;82.87;90118.84;4952834;28;20122;-87
2021/08/06 05:47:50;;;;;;;4.43;1.60;;;;;;;12.02;82.45;90125.66;4937260;29;20035;-88
2021/08/06 05:50:28;;;;;;;4.60;1.58;;;;;;;11.93;83.41;90126.66;4936966;29;20031;-88
2021/08/06 05:53:05;;;;;;;3.05;1.30;;;;;;;12.00;82.31;90128.63;4937514;29;20023;-88
2021/08/06 05:55:48;;;;;;;3.97;1.55;;;;;;;11.99;81.75;90128.97;4968012;28;20027;-88
2021/08/06 05:58:30;;;;;;;2.53;1.48;;;;;;;12.00;81.43;90127.88;4951894;28;20030;-88
2021/08/06 06:01:01;;;;;;;2.80;1.25;;;;;;;12.01;80.82;90113.69;4936699;29;20023;-87
2021/08/06 06:03:30;;;;;;;4.40;1.50;;;;;;;12.09;81.17;90116.06;4921092;29;20118;-89
2021/08/06 06:06:10;;;;;;;3.50;1.40;;;;;;;12.05;81.21;90124.94;4936004;29;20496;-88
2021/08/06 06:08:43;;;;;;;3.83;1.50;;;;;;;12.10;80.94;90114.19;4937244;29;20023;-88
2021/08/06 06:11:18;;;;;;;4.53;1.73;;;;;;;12.09;80.04;90126.50;4967300;28;20119;-88
2021/08/06 06:14:00;;;;;;;4.00;1.50;;;;;;;12.15;80.71;90130.28;4936856;29;20019;-88
2021/08/06 06:16:34;;;;;;;2.60;1.50;;;;;;;12.11;81.22;90126.13;4937153;29;20514;-88
2021/08/06 06:19:09;;;;;;;3.95;1.60;;;;;;;12.12;83.20;90135.47;4920967;29;20038;-88
2021/08/06 06:21:50;;;;;;;4.55;1.83;;;;;;;12.12;79.80;90135.47;4936232;29;20059;-88
2021/08/06 06:24:27;;;;;;;2.95;1.27;;;;;;;12.14;79.09;90133.25;4937067;29;20031;-88
2021/08/06 06:27:06;;;;;;;2.50;1.30;;;;;;;12.16;80.15;90128.44;4955778;28;20034;-88
2021/08/06 06:29:32;;;;;;;7.30;1.50;;;;;;;12.29;80.43;90128.94;4955035;28;20118;-88
2021/08/06 06:32:13;;;;;;;3.92;1.38;;;;;;;12.25;80.52;90128.91;4954842;28;20118;-88
2021/08/06 06:34:51;;;;;;;3.72;1.30;;;;;;;12.27;80.29;90136.41;4971164;28;20054;-89
2021/08/06 06:37:29;;;;;;;2.72;1.30;;;;;;;12.24;79.28;90145.69;4955986;28;20035;-88
2021/08/06 06:40:06;;;;;;;2.83;1.40;;;;;;;12.23;79.95;90152.03;4970403;28;20027;-88
2021/08/06 06:42:45;;;;;;;2.85;1.40;;;;;;;12.13;79.59;90150.78;4971028;28;20109;-88
2021/08/06 06:45:24;;;;;;;2.90;1.88;;;;;;;12.03;79.29;90156.63;4971175;28;20034;-88
2021/08/06 06:47:56;;;;;;;3.38;1.10;;;;;;;12.17;79.55;90146.34;4955585;28;20027;-88
2021/08/06 06:50:30;;;;;;;3.58;1.08;;;;;;;12.12;79.42;90135.47;4951506;29;20031;-88
2021/08/06 06:53:09;;;;;;;3.03;1.20;;;;;;;12.24;79.18;90124.78;4920129;29;20027;-88
2021/08/06 06:55:50;;;;;;;4.85;1.20;;;;;;;12.33;80.04;90132.34;4951963;28;20028;-88
2021/08/06 06:58:27;;;;;;;3.58;1.20;;;;;;;12.49;79.14;90137.38;4952619;28;20031;-88
2021/08/06 07:01:05;;;;;;;3.78;1.35;;;;;;;12.61;81.01;90145.69;4951340;28;20043;-88
2021/08/06 07:03:43;;;;;;;3.58;1.30;;;;;;;12.80;79.08;90133.56;4936776;29;20468;-88
2021/08/06 07:06:18;;;;;;;4.60;1.05;;;;;;;12.74;77.07;90154.06;4951581;28;20039;-88
2021/08/06 07:08:54;;;;;;;4.63;1.20;;;;;;;12.69;76.84;90149.16;4936114;29;20035;-88
2021/08/06 07:11:37;;;;;;;4.15;1.20;;;;;;;12.64;75.07;90149.47;4937330;29;20023;-88
2021/08/06 07:14:11;;;;;;;2.78;1.20;;;;;;;12.71;75.74;90165.22;4939377;29;20027;-88
2021/08/06 07:16:47;;;;;;;4.05;1.10;;;;;;;12.64;77.03;90178.22;4924229;29;20495;-90
2021/08/06 07:19:25;;;;;;;6.05;1.17;;;;;;;12.47;74.56;90156.00;4954786;29;20435;-87
2021/08/06 07:21:59;;;;;;;3.20;1.20;;;;;;;12.45;77.70;90160.84;4954805;29;20027;-88
2021/08/06 07:24:36;;;;;;;5.20;1.58;;;;;;;12.38;76.09;90164.13;4955063;28;20029;-88
2021/08/06 07:27:10;;;;;;;3.55;1.10;;;;;;;12.36;76.62;90163.72;4956429;28;20026;-88
2021/08/06 07:29:35;;;;;;;2.33;0.93;;;;;;;12.49;75.32;90173.97;4973867;28;20087;-89
2021/08/06 07:32:09;;;;;;;2.53;1.10;;;;;;;12.40;76.74;90180.22;4957704;28;20034;-88
2021/08/06 07:34:43;;;;;;;4.80;1.30;;;;;;;12.28;76.47;90180.44;4958178;28;20483;-88
2021/08/06 07:37:21;;;;;;;2.67;0.95;;;;;;;12.41;76.68;90184.34;4973847;28;20515;-87
2021/08/06 07:40:00;;;;;;;5.40;1.20;;;;;;;12.33;78.60;90195.81;4958295;28;20054;-88
2021/08/06 07:42:35;;;;;;;3.65;1.20;;;;;;;12.57;77.05;90188.59;4958652;28;20019;-88
2021/08/06 07:45:16;;;;;;;4.25;1.10;;;;;;;12.62;78.35;90185.69;4958621;28;20026;-88
2021/08/06 07:47:53;;;;;;;3.83;1.23;;;;;;;12.81;78.69;90195.22;4958384;28;20038;-88
2021/08/06 07:50:34;;;;;;;2.97;1.00;;;;;;;12.94;72.78;90185.25;4973406;28;20488;-89
2021/08/06 07:53:07;;;;;;;3.90;1.13;;;;;;;13.06;72.97;90190.22;4973083;28;20047;-88
2021/08/06 07:55:48;;;;;;;3.93;1.30;;;;;;;13.28;73.64;90173.59;4942259;28;20034;-88
2021/08/06 07:58:26;;;;;;;2.45;0.93;;;;;;;13.36;71.14;90174.44;4973580;28;20268;-88
2021/08/06 08:00:59;;;;;;;5.35;1.30;;;;;;;13.65;72.13;90185.13;4958204;28;20106;-88
2021/08/06 08:03:37;;;;;;;4.00;1.00;;;;;;;13.66;69.98;90176.16;4974023;28;20019;-88
2021/08/06 08:06:19;;;;;;;4.03;1.00;;;;;;;13.47;71.10;90171.91;4958200;28;20030;-88
2021/08/06 08:09:02;;;;;;;4.97;1.00;;;;;;;13.68;72.16;90187.00;4958055;28;20041;-88
2021/08/06 08:11:40;;;;;;;3.92;1.08;;;;;;;14.03;72.34;90192.47;4973311;28;20493;-85
2021/08/06 08:14:12;;;;;;;3.38;1.10;;;;;;;14.10;68.61;90197.75;4973386;28;20030;-86
2021/08/06 08:16:47;;;;;;;7.30;1.80;;;;;;;13.92;69.36;90198.75;4973404;28;20027;-86
2021/08/06 08:19:25;;;;;;;4.72;0.88;;;;;;;14.13;70.71;90190.25;4957852;28;20113;-86
2021/08/06 08:22:04;;;;;;;2.95;0.80;;;;;;;14.34;69.34;90185.88;4958055;28;20105;-86
2021/08/06 08:24:39;;;;;;;3.75;0.98;;;;;;;14.41;71.26;90190.41;4957432;28;20117;-86
2021/08/06 08:27:19;;;;;;;5.68;0.90;;;;;;;14.47;70.11;90193.44;4954037;28;20024;-86
2021/08/06 08:29:58;;;;;;;4.25;1.10;;;;;;;14.29;69.73;90183.63;4939134;29;20391;-86
2021/08/06 08:32:32;;;;;;;5.80;0.90;;;;;;;14.30;69.57;90195.59;4953733;29;20416;-86
2021/08/06 08:35:06;;;;;;;;;;;;;;;14.22;69.37;90201.19;4954115;29;20069;-86
2021/08/06 08:37:40;;;;;;;1.55;0.93;;;;;;;14.28;70.75;90202.34;4953531;28;19910;-85
2021/08/06 08:40:17;;;;;;;5.00;0.98;;;;;;;14.29;71.32;90195.97;4953543;29;20027;-86
2021/08/06 08:42:56;;;;;;;3.65;1.10;;;;;;;14.27;70.01;90204.19;4938830;29;20033;-86
2021/08/06 08:45:34;;;;;;;2.85;0.88;;;;;;;14.24;70.81;90217.25;4923087;29;20459;-85
2021/08/06 08:48:10;;;;;;;2.67;1.00;;;;;;;14.30;70.31;90221.78;4953703;29;20106;-85
2021/08/06 08:50:49;;;;;;;2.75;1.05;;;;;;;14.27;70.10;90212.03;4938208;29;20488;-86
2021/08/06 08:53:22;;;;;;;4.85;1.20;;;;;;;14.23;67.35;90221.00;4938221;29;20114;-86
2021/08/06 08:56:02;;;;;;;4.63;1.20;;;;;;;14.39;68.91;90223.34;4953047;28;20086;-88
2021/08/06 08:58:36;;;;;;;4.28;0.90;;;;;;;14.38;69.76;90222.59;4953841;29;20031;-88
2021/08/06 09:01:12;;;;;;;4.72;1.10;;;;;;;14.34;70.39;90233.03;4921814;29;20628;-86
2021/08/06 09:03:55;;;;;;;3.88;1.10;;;;;;;14.27;70.50;90208.69;4953456;29;20062;-86
2021/08/06 09:06:42;;;;;;;3.63;1.02;;;;;;;14.20;70.71;90219.88;4952823;28;20031;-86
2021/08/06 09:09:22;;;;;;;4.97;1.00;;;;;;;14.18;69.38;90211.63;4953381;29;20055;-86
2021/08/06 09:12:19;;;;;;;3.75;1.20;;;;;;;14.09;69.24;90224.31;4938993;29;20031;-85
2021/08/06 09:15:01;;;;;;;3.30;1.42;;;;;;;14.05;69.77;90229.53;4954114;29;20432;-86
2021/08/06 09:17:35;;;;;;;3.22;1.10;;;;;;;13.88;69.33;90230.91;4953405;28;20031;-86
2021/08/06 09:20:16;;;;;;;3.95;1.13;;;;;;;13.80;69.28;90231.97;4937092;29;20058;-87
2021/08/06 09:22:53;;;;;;;2.92;1.02;;;;;;;13.86;70.81;90240.25;4952655;29;20035;-86
2021/08/06 09:25:32;;;;;;;4.85;1.30;;;;;;;14.00;69.66;90234.38;4957103;28;20025;-86
2021/08/06 09:28:11;;;;;;;5.15;1.27;;;;;;;14.01;69.43;90230.63;4971820;28;20035;-85
2021/08/06 09:30:45;;;;;;;2.67;1.17;;;;;;;14.23;69.46;90244.59;4956146;28;20062;-86
2021/08/06 09:33:19;;;;;;;3.33;0.97;;;;;;;13.86;68.94;90235.75;4971149;28;20033;-86
2021/08/06 09:35:54;;;;;;;4.22;1.10;;;;;;;13.86;69.46;90230.53;4956240;28;20676;-86
2021/08/06 09:38:30;;;;;;;2.78;1.30;;;;;;;13.76;71.01;90223.34;4971092;28;20551;-86
2021/08/06 09:41:06;;;;;;;3.28;1.50;;;;;;;13.84;70.94;90230.13;4955755;28;20074;-86
2021/08/06 09:43:45;;;;;;;3.65;1.23;;;;;;;13.98;71.35;90231.34;4940309;28;20173;-86
2021/08/06 09:46:36;;;;;;;4.10;1.10;;;;;;;14.06;69.96;90223.19;4955506;28;20035;-86
2021/08/06 09:49:15;;;;;;;5.65;1.30;;;;;;;14.24;68.94;90218.03;4940096;28;20125;-86
2021/08/06 09:51:59;;;;;;;1.95;0.93;;;;;;;14.34;70.22;90230.44;4971391;28;20034;-86
2021/08/06 09:54:43;;;;;;;3.47;1.10;;;;;;;14.28;70.05;90236.41;4971311;28;20487;-85
2021/08/06 09:57:30;;;;;;;6.00;1.33;;;;;;;14.33;68.84;90226.31;4971619;28;20062;-87
2021/08/06 10:00:09;;;;;;;6.32;1.10;;;;;;;14.35;69.29;90242.44;4955871;28;20062;-86
2021/08/06 10:02:48;;;;;;;5.03;1.30;;;;;;;14.68;68.94;90245.97;4971630;28;20395;-88
2021/08/06 10:05:32;;;;;;;4.70;1.30;;;;;;;14.82;67.04;90226.94;4971410;28;20407;-88
2021/08/06 10:08:11;;;;;;;2.55;1.10;;;;;;;14.57;68.16;90229.44;5055805;23;20050;-86
2021/08/06 10:10:45;;;;;;;2.40;1.20;;;;;;;14.83;68.59;90226.53;4979527;28;20124;-86
2021/08/06 10:13:24;;;;;;;4.78;1.20;;;;;;;14.91;67.41;90229.19;4963733;28;20036;-86
2021/08/06 10:16:04;;;;;;;6.95;1.20;;;;;;;14.71;68.29;90221.66;4963556;28;20038;-85
2021/08/06 10:18:46;;;;;;;8.57;1.45;;;;;;;14.44;67.92;90228.25;4944370;28;20034;-86
2021/08/06 10:21:23;;;;;;;4.55;1.55;;;;;;;14.51;69.95;90236.16;4945597;28;20549;-85
2021/08/06 10:24:02;;;;;;;6.78;1.88;;;;;;;14.52;68.23;90242.91;4961521;28;20023;-87
2021/08/06 10:26:39;;;;;;;4.93;1.80;;;;;;;14.51;69.67;90246.66;4957594;28;20031;-87
2021/08/06 10:29:19;;;;;;;4.97;1.05;;;;;;;14.55;66.71;90242.16;4926446;28;20027;-85
2021/08/06 10:32:17;;;;;;;3.15;0.93;;;;;;;14.64;66.17;90239.97;4926200;28;20027;-84
2021/08/06 10:35:07;;;;;;;2.85;1.00;;;;;;;14.73;66.88;90245.63;4952047;28;20023;-86
2021/08/06 10:38:05;;;;;;;2.35;0.90;;;;;;;14.64;63.16;90236.59;4981732;28;20039;-87
2021/08/06 10:40:46;;;;;;;2.75;1.02;;;;;;;14.66;64.85;90245.59;4964864;28;20058;-87
2021/08/06 10:43:34;;;;;;;2.83;1.00;;;;;;;14.62;63.68;90236.97;4975260;28;20019;-87
2021/08/06 10:46:10;;;;;;;2.58;1.00;;;;;;;14.68;64.57;90232.88;4976488;28;20031;-86
2021/08/06 10:48:50;;;;;;;3.60;1.10;;;;;;;14.56;64.32;90231.31;4962583;28;20019;-87
2021/08/06 10:51:28;;;;;;;1.98;0.88;;;;;;;14.57;63.13;90222.34;4961554;28;20046;-86
2021/08/06 10:54:11;;;;;;;1.55;0.93;;;;;;;14.64;62.45;90229.47;4946326;28;20026;-85
2021/08/06 10:56:50;;;;;;;7.10;1.30;;;;;;;14.52;65.17;90232.41;4960976;28;20495;-87
2021/08/06 10:59:39;;;;;;;3.28;1.00;;;;;;;14.62;63.03;90225.72;4931352;28;20058;-87
2021/08/06 11:02:42;;;;;;;4.47;1.20;;;;;;;14.65;63.99;90230.97;4933175;28;20031;-86
2021/08/06 11:05:45;;;;;;;5.15;1.10;;;;;;;14.90;63.16;90231.06;4945842;28;20027;-86
2021/08/06 11:08:49;;;;;;;3.20;1.08;;;;;;;14.77;62.91;90241.16;4979446;28;20077;-87
2021/08/06 11:11:55;;;;;;;5.53;1.00;;;;;;;14.77;61.40;90241.16;4963292;28;20537;-87
2021/08/06 11:14:41;;;;;;;6.43;1.00;;;;;;;15.00;60.88;90240.09;4978437;28;20038;-83
2021/08/06 11:17:34;;;;;;;3.83;1.08;;;;;;;14.96;61.57;90234.09;4984091;28;20066;-86
2021/08/06 11:20:20;;;;;;;3.63;0.90;;;;;;;15.00;61.63;90219.09;4944947;28;20037;-86
2021/08/06 11:22:56;;;;;;;3.67;1.15;;;;;;;14.87;61.58;90207.44;4927177;28;20539;-84
2021/08/06 11:25:30;;;;;;;3.20;1.00;;;;;;;15.17;61.98;90236.03;4927758;28;20031;-84
2021/08/06 11:28:10;;;;;;;4.45;0.80;;;;;;;15.47;62.69;90222.56;4958244;28;20037;-85
2021/08/06 11:30:50;;;;;;;5.65;1.15;;;;;;;15.84;61.19;90213.59;4974041;28;20026;-85
2021/08/06 11:33:25;;;;;;;4.00;1.08;;;;;;;15.93;61.99;90229.72;4958629;28;20109;-85
2021/08/06 11:36:07;;;;;;;4.47;1.10;;;;;;;16.18;58.29;90233.09;4948463;28;20019;-86
2021/08/06 11:38:45;;;;;;;3.47;0.90;;;;;;;15.74;56.57;90218.47;4988170;28;20038;-86
2021/08/06 11:41:19;;;;;;;3.17;1.10;;;;;;;15.98;58.38;90218.84;4962051;28;20037;-85
2021/08/06 11:43:55;;;;;;;4.22;1.02;;;;;;;16.15;57.07;90215.44;4963119;28;20050;-86
2021/08/06 11:46:43;;;;;;;2.53;0.80;;;;;;;16.17;57.00;90221.06;4960759;28;20110;-86
2021/08/06 11:49:21;;;;;;;4.25;1.02;;;;;;;16.17;56.40;90218.44;4960723;28;20110;-87
2021/08/06 11:51:54;;;;;;;4.88;1.40;;;;;;;16.22;57.50;90217.31;4944979;28;20026;-86
2021/08/06 11:54:29;;;;;;;3.45;1.00;;;;;;;16.40;57.07;90227.78;4959761;28;20419;-86
2021/08/06 11:57:05;;;;;;;;;;;;;;;16.36;56.92;90219.91;4961645;28;20035;-88
2021/08/06 11:59:45;;;;;;;4.57;0.80;;;;;;;16.47;56.56;90214.63;4999829;28;19930;-87
2021/08/06 12:02:27;;;;;;;3.33;1.02;;;;;;;16.89;56.07;90216.38;4967861;28;20038;-86
2021/08/06 12:05:24;;;;;;;5.00;1.10;;;;;;;16.96;55.45;90218.97;4961813;28;20030;-85
2021/08/06 12:08:24;;;;;;;3.13;0.85;;;;;;;17.05;53.58;90215.16;4960869;28;20061;-85
2021/08/06 12:11:10;;;;;;;5.30;1.00;;;;;;;17.04;53.88;90221.56;4979033;28;20053;-85
2021/08/06 12:13:48;;;;;;;4.90;1.30;;;;;;;16.83;54.97;90207.38;4975475;28;20030;-85
2021/08/06 12:16:42;;;;;;;7.32;1.40;;;;;;;16.99;53.53;90227.97;4942822;28;20031;-86
2021/08/06 12:19:22;;;;;;;3.20;1.00;;;;;;;16.91;53.25;90213.34;4943148;28;20030;-84
2021/08/06 12:21:58;;;;;;;2.45;1.00;;;;;;;16.91;55.14;90210.72;4943154;28;20072;-85
2021/08/06 12:24:34;;;;;;;7.22;1.48;;;;;;;17.34;54.42;90205.22;4959404;28;20105;-85
2021/08/06 12:27:15;;;;;;;5.40;1.60;;;;;;;17.57;55.41;90202.81;4979232;28;20066;-86
2021/08/06 12:29:55;;;;;;;3.15;1.17;;;;;;;17.41;55.27;90216.47;4963893;28;20030;-86